sensor_id;sensor_type;location;lat;lon;timestamp;P1;durP1;ratioP1;P2;durP2;ratioP2
32323;SDS011;25666;44.350;9.222;2022-09-02T00:01:49;9.02;;;5.70;;
32323;SDS011;25666;44.350;9.222;2022-09-02T00:04:19;11.35;;;5.97;;
32323;SDS011;25666;44.350;9.222;2022-09-02T00:06:47;12.65;;;6.70;;
32323;SDS011;25666;44.350;9.222;2022-09-02T00:09:16;14.50;;;6.15;;
32323;SDS011;25666;44.350;9.222;2022-09-02T00:11:44;7.22;;;5.65;;
32323;SDS011;25666;44.350;9.222;2022-09-02T00:14:21;13.40;;;6.38;;
32323;SDS011;25666;44.350;9.222;2022-09-02T00:16:50;14.60;;;6.68;;
32323;SDS011;25666;44.350;9.222;2022-09-02T00:19:20;10.93;;;5.43;;
32323;SDS011;25666;44.350;9.222;2022-09-02T00:21:49;7.13;;;5.72;;
32323;SDS011;25666;44.350;9.222;2022-09-02T00:24:15;9.02;;;5.57;;
32323;SDS011;25666;44.350;9.222;2022-09-02T00:26:41;10.13;;;5.63;;
32323;SDS011;25666;44.350;9.222;2022-09-02T00:29:08;8.65;;;5.93;;
32323;SDS011;25666;44.350;9.222;2022-09-02T00:31:34;14.48;;;5.93;;
32323;SDS011;25666;44.350;9.222;2022-09-02T00:34:01;7.80;;;5.78;;
32323;SDS011;25666;44.350;9.222;2022-09-02T00:36:28;10.40;;;5.55;;
32323;SDS011;25666;44.350;9.222;2022-09-02T00:38:54;10.75;;;5.05;;
32323;SDS011;25666;44.350;9.222;2022-09-02T00:41:21;11.13;;;5.13;;
32323;SDS011;25666;44.350;9.222;2022-09-02T00:43:56;11.23;;;4.95;;
32323;SDS011;25666;44.350;9.222;2022-09-02T00:46:28;9.18;;;5.53;;
32323;SDS011;25666;44.350;9.222;2022-09-02T00:49:39;5.07;;;4.45;;
32323;SDS011;25666;44.350;9.222;2022-09-02T00:52:01;9.30;;;4.93;;
32323;SDS011;25666;44.350;9.222;2022-09-02T00:54:28;10.55;;;5.55;;
32323;SDS011;25666;44.350;9.222;2022-09-02T00:56:56;8.02;;;5.30;;
32323;SDS011;25666;44.350;9.222;2022-09-02T00:59:58;8.93;;;6.40;;
32323;SDS011;25666;44.350;9.222;2022-09-02T01:02:29;9.98;;;5.20;;
32323;SDS011;25666;44.350;9.222;2022-09-02T01:04:56;12.00;;;5.28;;
32323;SDS011;25666;44.350;9.222;2022-09-02T01:07:24;9.35;;;4.90;;
32323;SDS011;25666;44.350;9.222;2022-09-02T01:09:54;11.25;;;5.57;;
32323;SDS011;25666;44.350;9.222;2022-09-02T01:12:21;11.23;;;5.03;;
32323;SDS011;25666;44.350;9.222;2022-09-02T01:14:47;11.75;;;4.60;;
32323;SDS011;25666;44.350;9.222;2022-09-02T01:17:13;11.20;;;5.53;;
32323;SDS011;25666;44.350;9.222;2022-09-02T01:19:45;15.95;;;5.22;;
32323;SDS011;25666;44.350;9.222;2022-09-02T01:22:24;8.05;;;5.32;;
32323;SDS011;25666;44.350;9.222;2022-09-02T01:24:52;7.30;;;4.70;;
32323;SDS011;25666;44.350;9.222;2022-09-02T01:27:20;5.32;;;4.60;;
32323;SDS011;25666;44.350;9.222;2022-09-02T01:29:52;7.38;;;4.13;;
32323;SDS011;25666;44.350;9.222;2022-09-02T01:32:19;5.43;;;4.13;;
32323;SDS011;25666;44.350;9.222;2022-09-02T01:34:45;8.93;;;4.45;;
32323;SDS011;25666;44.350;9.222;2022-09-02T01:37:11;9.05;;;4.53;;
32323;SDS011;25666;44.350;9.222;2022-09-02T01:39:37;6.88;;;4.45;;
32323;SDS011;25666;44.350;9.222;2022-09-02T01:42:03;7.43;;;4.18;;
32323;SDS011;25666;44.350;9.222;2022-09-02T01:44:29;7.63;;;4.35;;
32323;SDS011;25666;44.350;9.222;2022-09-02T01:46:55;8.50;;;4.90;;
32323;SDS011;25666;44.350;9.222;2022-09-02T01:49:21;10.85;;;4.63;;
32323;SDS011;25666;44.350;9.222;2022-09-02T01:51:48;9.90;;;4.68;;
32323;SDS011;25666;44.350;9.222;2022-09-02T01:54:14;6.47;;;4.25;;
32323;SDS011;25666;44.350;9.222;2022-09-02T01:56:40;6.07;;;4.10;;
32323;SDS011;25666;44.350;9.222;2022-09-02T01:59:05;8.18;;;5.75;;
32323;SDS011;25666;44.350;9.222;2022-09-02T02:01:35;10.25;;;4.28;;
32323;SDS011;25666;44.350;9.222;2022-09-02T02:04:02;6.57;;;4.25;;
32323;SDS011;25666;44.350;9.222;2022-09-02T02:06:28;8.73;;;4.63;;
32323;SDS011;25666;44.350;9.222;2022-09-02T02:08:55;8.98;;;3.95;;
32323;SDS011;25666;44.350;9.222;2022-09-02T02:11:22;8.18;;;4.15;;
32323;SDS011;25666;44.350;9.222;2022-09-02T02:13:55;9.88;;;4.40;;
32323;SDS011;25666;44.350;9.222;2022-09-02T02:16:20;8.00;;;5.38;;
32323;SDS011;25666;44.350;9.222;2022-09-02T02:18:46;11.38;;;4.57;;
32323;SDS011;25666;44.350;9.222;2022-09-02T02:21:11;9.23;;;4.97;;
32323;SDS011;25666;44.350;9.222;2022-09-02T02:23:37;7.93;;;4.40;;
32323;SDS011;25666;44.350;9.222;2022-09-02T02:26:05;8.18;;;4.32;;
32323;SDS011;25666;44.350;9.222;2022-09-02T02:28:31;8.55;;;4.40;;
32323;SDS011;25666;44.350;9.222;2022-09-02T02:30:56;6.15;;;4.68;;
32323;SDS011;25666;44.350;9.222;2022-09-02T02:33:24;13.30;;;5.20;;
32323;SDS011;25666;44.350;9.222;2022-09-02T02:35:49;7.68;;;4.85;;
32323;SDS011;25666;44.350;9.222;2022-09-02T02:38:16;11.32;;;4.57;;
32323;SDS011;25666;44.350;9.222;2022-09-02T02:40:41;7.63;;;4.38;;
32323;SDS011;25666;44.350;9.222;2022-09-02T02:43:07;8.65;;;4.43;;
32323;SDS011;25666;44.350;9.222;2022-09-02T02:45:33;7.50;;;4.80;;
32323;SDS011;25666;44.350;9.222;2022-09-02T02:47:58;9.65;;;4.68;;
32323;SDS011;25666;44.350;9.222;2022-09-02T02:50:24;8.57;;;4.55;;
32323;SDS011;25666;44.350;9.222;2022-09-02T02:52:50;7.80;;;4.88;;
32323;SDS011;25666;44.350;9.222;2022-09-02T02:55:18;9.07;;;4.63;;
32323;SDS011;25666;44.350;9.222;2022-09-02T02:57:45;10.55;;;4.45;;
32323;SDS011;25666;44.350;9.222;2022-09-02T03:00:13;10.90;;;4.68;;
32323;SDS011;25666;44.350;9.222;2022-09-02T03:02:41;12.50;;;4.45;;
32323;SDS011;25666;44.350;9.222;2022-09-02T03:05:07;10.63;;;5.28;;
32323;SDS011;25666;44.350;9.222;2022-09-02T03:07:36;15.45;;;5.50;;
32323;SDS011;25666;44.350;9.222;2022-09-02T03:10:03;12.73;;;6.05;;
32323;SDS011;25666;44.350;9.222;2022-09-02T03:12:33;19.25;;;6.43;;
32323;SDS011;25666;44.350;9.222;2022-09-02T03:15:03;21.30;;;5.63;;
32323;SDS011;25666;44.350;9.222;2022-09-02T03:17:31;22.20;;;6.03;;
32323;SDS011;25666;44.350;9.222;2022-09-02T03:19:57;19.58;;;3.83;;
32323;SDS011;25666;44.350;9.222;2022-09-02T03:22:26;18.35;;;4.47;;
32323;SDS011;25666;44.350;9.222;2022-09-02T03:24:53;13.65;;;3.70;;
32323;SDS011;25666;44.350;9.222;2022-09-02T03:27:19;15.55;;;3.38;;
32323;SDS011;25666;44.350;9.222;2022-09-02T03:29:44;11.98;;;3.88;;
32323;SDS011;25666;44.350;9.222;2022-09-02T03:32:11;10.52;;;2.88;;
32323;SDS011;25666;44.350;9.222;2022-09-02T03:34:37;4.90;;;2.88;;
32323;SDS011;25666;44.350;9.222;2022-09-02T03:37:02;4.47;;;2.55;;
32323;SDS011;25666;44.350;9.222;2022-09-02T03:39:29;8.50;;;3.13;;
32323;SDS011;25666;44.350;9.222;2022-09-02T03:41:54;11.70;;;4.05;;
32323;SDS011;25666;44.350;9.222;2022-09-02T03:44:20;10.07;;;3.10;;
32323;SDS011;25666;44.350;9.222;2022-09-02T03:46:46;8.50;;;3.10;;
32323;SDS011;25666;44.350;9.222;2022-09-02T03:49:12;10.90;;;3.25;;
32323;SDS011;25666;44.350;9.222;2022-09-02T03:51:40;10.25;;;2.85;;
32323;SDS011;25666;44.350;9.222;2022-09-02T03:54:07;4.95;;;2.42;;
32323;SDS011;25666;44.350;9.222;2022-09-02T03:56:34;7.22;;;3.03;;
32323;SDS011;25666;44.350;9.222;2022-09-02T03:59:02;7.10;;;2.90;;
32323;SDS011;25666;44.350;9.222;2022-09-02T04:01:28;13.90;;;3.10;;
32323;SDS011;25666;44.350;9.222;2022-09-02T04:03:54;4.47;;;2.95;;
32323;SDS011;25666;44.350;9.222;2022-09-02T04:06:21;7.28;;;2.88;;
32323;SDS011;25666;44.350;9.222;2022-09-02T04:08:49;10.80;;;3.65;;
32323;SDS011;25666;44.350;9.222;2022-09-02T04:11:17;6.25;;;3.38;;
32323;SDS011;25666;44.350;9.222;2022-09-02T04:13:47;7.40;;;2.70;;
32323;SDS011;25666;44.350;9.222;2022-09-02T04:16:22;5.30;;;2.30;;
32323;SDS011;25666;44.350;9.222;2022-09-02T04:19:03;7.57;;;3.80;;
32323;SDS011;25666;44.350;9.222;2022-09-02T04:21:35;12.18;;;3.20;;
32323;SDS011;25666;44.350;9.222;2022-09-02T04:24:03;6.63;;;2.80;;
32323;SDS011;25666;44.350;9.222;2022-09-02T04:26:31;4.75;;;2.53;;
32323;SDS011;25666;44.350;9.222;2022-09-02T04:28:58;7.68;;;2.97;;
32323;SDS011;25666;44.350;9.222;2022-09-02T04:31:25;6.43;;;3.05;;
32323;SDS011;25666;44.350;9.222;2022-09-02T04:33:55;6.43;;;3.03;;
32323;SDS011;25666;44.350;9.222;2022-09-02T04:36:21;9.82;;;3.13;;
32323;SDS011;25666;44.350;9.222;2022-09-02T04:38:50;5.80;;;3.80;;
32323;SDS011;25666;44.350;9.222;2022-09-02T04:41:19;5.03;;;2.88;;
32323;SDS011;25666;44.350;9.222;2022-09-02T04:43:51;7.57;;;3.60;;
32323;SDS011;25666;44.350;9.222;2022-09-02T04:46:19;11.80;;;5.55;;
32323;SDS011;25666;44.350;9.222;2022-09-02T04:48:45;10.35;;;3.65;;
32323;SDS011;25666;44.350;9.222;2022-09-02T04:51:16;4.10;;;3.45;;
32323;SDS011;25666;44.350;9.222;2022-09-02T04:53:44;10.02;;;4.10;;
32323;SDS011;25666;44.350;9.222;2022-09-02T04:56:13;9.25;;;4.28;;
32323;SDS011;25666;44.350;9.222;2022-09-02T04:58:42;7.28;;;3.67;;
32323;SDS011;25666;44.350;9.222;2022-09-02T05:01:12;8.55;;;4.13;;
32323;SDS011;25666;44.350;9.222;2022-09-02T05:03:41;7.60;;;3.15;;
32323;SDS011;25666;44.350;9.222;2022-09-02T05:06:10;7.18;;;3.92;;
32323;SDS011;25666;44.350;9.222;2022-09-02T05:08:39;12.27;;;4.97;;
32323;SDS011;25666;44.350;9.222;2022-09-02T05:11:08;8.38;;;4.80;;
32323;SDS011;25666;44.350;9.222;2022-09-02T05:13:36;9.18;;;5.00;;
32323;SDS011;25666;44.350;9.222;2022-09-02T05:16:02;11.88;;;4.43;;
32323;SDS011;25666;44.350;9.222;2022-09-02T05:18:28;9.10;;;5.15;;
32323;SDS011;25666;44.350;9.222;2022-09-02T05:20:55;11.15;;;4.60;;
32323;SDS011;25666;44.350;9.222;2022-09-02T05:23:21;9.35;;;4.88;;
32323;SDS011;25666;44.350;9.222;2022-09-02T05:25:46;6.18;;;4.60;;
32323;SDS011;25666;44.350;9.222;2022-09-02T05:28:13;10.02;;;5.53;;
32323;SDS011;25666;44.350;9.222;2022-09-02T05:30:40;11.77;;;5.32;;
32323;SDS011;25666;44.350;9.222;2022-09-02T05:33:08;13.60;;;5.28;;
32323;SDS011;25666;44.350;9.222;2022-09-02T05:35:40;10.55;;;5.85;;
32323;SDS011;25666;44.350;9.222;2022-09-02T05:38:08;13.45;;;5.45;;
32323;SDS011;25666;44.350;9.222;2022-09-02T05:40:37;13.00;;;7.03;;
32323;SDS011;25666;44.350;9.222;2022-09-02T05:43:05;12.65;;;6.13;;
32323;SDS011;25666;44.350;9.222;2022-09-02T05:45:31;11.32;;;5.82;;
32323;SDS011;25666;44.350;9.222;2022-09-02T05:47:58;10.65;;;5.03;;
32323;SDS011;25666;44.350;9.222;2022-09-02T05:50:44;13.20;;;4.93;;
32323;SDS011;25666;44.350;9.222;2022-09-02T05:53:10;8.43;;;4.55;;
32323;SDS011;25666;44.350;9.222;2022-09-02T05:55:37;7.20;;;4.30;;
32323;SDS011;25666;44.350;9.222;2022-09-02T05:58:02;5.05;;;3.90;;
32323;SDS011;25666;44.350;9.222;2022-09-02T06:00:28;7.43;;;4.30;;
32323;SDS011;25666;44.350;9.222;2022-09-02T06:02:58;9.50;;;4.93;;
32323;SDS011;25666;44.350;9.222;2022-09-02T06:05:29;9.93;;;4.30;;
32323;SDS011;25666;44.350;9.222;2022-09-02T06:08:03;5.00;;;3.65;;
32323;SDS011;25666;44.350;9.222;2022-09-02T06:10:29;3.80;;;3.35;;
32323;SDS011;25666;44.350;9.222;2022-09-02T06:12:55;5.32;;;3.03;;
32323;SDS011;25666;44.350;9.222;2022-09-02T06:15:24;4.35;;;2.88;;
32323;SDS011;25666;44.350;9.222;2022-09-02T06:17:53;4.13;;;2.33;;
32323;SDS011;25666;44.350;9.222;2022-09-02T06:20:24;3.58;;;3.22;;
32323;SDS011;25666;44.350;9.222;2022-09-02T06:22:53;4.88;;;2.78;;
32323;SDS011;25666;44.350;9.222;2022-09-02T06:25:19;3.35;;;2.70;;
32323;SDS011;25666;44.350;9.222;2022-09-02T06:27:45;3.67;;;2.97;;
32323;SDS011;25666;44.350;9.222;2022-09-02T06:30:11;3.80;;;3.13;;
32323;SDS011;25666;44.350;9.222;2022-09-02T06:32:37;7.47;;;3.00;;
32323;SDS011;25666;44.350;9.222;2022-09-02T06:35:07;7.65;;;3.28;;
32323;SDS011;25666;44.350;9.222;2022-09-02T06:37:34;18.98;;;3.58;;
32323;SDS011;25666;44.350;9.222;2022-09-02T06:39:59;4.10;;;2.90;;
32323;SDS011;25666;44.350;9.222;2022-09-02T06:42:26;5.53;;;2.58;;
32323;SDS011;25666;44.350;9.222;2022-09-02T06:45:15;6.45;;;3.92;;
32323;SDS011;25666;44.350;9.222;2022-09-02T06:47:42;7.45;;;5.50;;
32323;SDS011;25666;44.350;9.222;2022-09-02T06:50:07;9.57;;;4.85;;
32323;SDS011;25666;44.350;9.222;2022-09-02T06:52:33;9.88;;;4.28;;
32323;SDS011;25666;44.350;9.222;2022-09-02T06:54:59;6.53;;;3.70;;
32323;SDS011;25666;44.350;9.222;2022-09-02T06:57:25;6.47;;;3.83;;
32323;SDS011;25666;44.350;9.222;2022-09-02T06:59:51;8.32;;;4.63;;
32323;SDS011;25666;44.350;9.222;2022-09-02T07:02:18;7.65;;;3.95;;
32323;SDS011;25666;44.350;9.222;2022-09-02T07:04:45;18.33;;;5.03;;
32323;SDS011;25666;44.350;9.222;2022-09-02T07:07:30;11.55;;;4.30;;
32323;SDS011;25666;44.350;9.222;2022-09-02T07:10:01;8.43;;;3.83;;
32323;SDS011;25666;44.350;9.222;2022-09-02T07:12:30;10.57;;;4.60;;
32323;SDS011;25666;44.350;9.222;2022-09-02T07:15:04;12.13;;;4.50;;
32323;SDS011;25666;44.350;9.222;2022-09-02T07:17:37;12.60;;;4.43;;
32323;SDS011;25666;44.350;9.222;2022-09-02T07:20:07;9.10;;;4.10;;
32323;SDS011;25666;44.350;9.222;2022-09-02T07:22:46;10.43;;;4.68;;
32323;SDS011;25666;44.350;9.222;2022-09-02T07:25:15;13.77;;;4.97;;
32323;SDS011;25666;44.350;9.222;2022-09-02T07:27:41;18.17;;;4.38;;
32323;SDS011;25666;44.350;9.222;2022-09-02T07:30:08;14.15;;;3.70;;
32323;SDS011;25666;44.350;9.222;2022-09-02T07:32:37;5.18;;;2.65;;
32323;SDS011;25666;44.350;9.222;2022-09-02T07:35:05;6.68;;;2.80;;
32323;SDS011;25666;44.350;9.222;2022-09-02T07:37:32;5.63;;;2.55;;
32323;SDS011;25666;44.350;9.222;2022-09-02T07:40:00;9.18;;;3.63;;
32323;SDS011;25666;44.350;9.222;2022-09-02T07:42:28;10.32;;;4.63;;
32323;SDS011;25666;44.350;9.222;2022-09-02T07:44:54;8.60;;;5.00;;
32323;SDS011;25666;44.350;9.222;2022-09-02T07:47:19;13.30;;;6.13;;
32323;SDS011;25666;44.350;9.222;2022-09-02T07:49:45;9.52;;;5.75;;
32323;SDS011;25666;44.350;9.222;2022-09-02T07:52:11;17.17;;;5.95;;
32323;SDS011;25666;44.350;9.222;2022-09-02T07:54:37;12.90;;;5.55;;
32323;SDS011;25666;44.350;9.222;2022-09-02T07:57:03;11.35;;;5.47;;
32323;SDS011;25666;44.350;9.222;2022-09-02T07:59:30;8.45;;;4.90;;
32323;SDS011;25666;44.350;9.222;2022-09-02T08:01:57;15.20;;;5.47;;
32323;SDS011;25666;44.350;9.222;2022-09-02T08:04:24;8.57;;;4.53;;
32323;SDS011;25666;44.350;9.222;2022-09-02T08:06:50;12.13;;;5.28;;
32323;SDS011;25666;44.350;9.222;2022-09-02T08:09:18;10.77;;;4.45;;
32323;SDS011;25666;44.350;9.222;2022-09-02T08:11:44;5.57;;;3.65;;
32323;SDS011;25666;44.350;9.222;2022-09-02T08:14:15;11.00;;;4.53;;
32323;SDS011;25666;44.350;9.222;2022-09-02T08:16:44;10.13;;;4.50;;
32323;SDS011;25666;44.350;9.222;2022-09-02T08:19:11;15.40;;;4.50;;
32323;SDS011;25666;44.350;9.222;2022-09-02T08:21:37;8.70;;;3.90;;
32323;SDS011;25666;44.350;9.222;2022-09-02T08:24:03;35.28;;;5.45;;
32323;SDS011;25666;44.350;9.222;2022-09-02T08:26:29;20.25;;;4.55;;
32323;SDS011;25666;44.350;9.222;2022-09-02T08:28:55;17.55;;;5.18;;
32323;SDS011;25666;44.350;9.222;2022-09-02T08:31:20;14.82;;;5.65;;
32323;SDS011;25666;44.350;9.222;2022-09-02T08:33:46;19.08;;;6.50;;
32323;SDS011;25666;44.350;9.222;2022-09-02T08:36:12;20.90;;;5.88;;
32323;SDS011;25666;44.350;9.222;2022-09-02T08:38:40;10.73;;;4.85;;
32323;SDS011;25666;44.350;9.222;2022-09-02T08:43:54;10.73;;;4.60;;
32323;SDS011;25666;44.350;9.222;2022-09-02T08:46:23;9.88;;;4.15;;
32323;SDS011;25666;44.350;9.222;2022-09-02T08:49:10;8.65;;;5.15;;
32323;SDS011;25666;44.350;9.222;2022-09-02T08:51:51;13.40;;;4.43;;
32323;SDS011;25666;44.350;9.222;2022-09-02T08:57:06;4.65;;;2.90;;
32323;SDS011;25666;44.350;9.222;2022-09-02T08:59:33;10.82;;;3.67;;
32323;SDS011;25666;44.350;9.222;2022-09-02T09:18:06;5.00;;;3.50;;
32323;SDS011;25666;44.350;9.222;2022-09-02T09:20:37;8.38;;;2.97;;
32323;SDS011;25666;44.350;9.222;2022-09-02T09:25:55;7.40;;;2.78;;
32323;SDS011;25666;44.350;9.222;2022-09-02T09:28:29;13.43;;;4.47;;
32323;SDS011;25666;44.350;9.222;2022-09-02T09:30:55;5.82;;;3.05;;
32323;SDS011;25666;44.350;9.222;2022-09-02T09:33:24;9.18;;;3.35;;
32323;SDS011;25666;44.350;9.222;2022-09-02T09:35:52;8.52;;;3.50;;
32323;SDS011;25666;44.350;9.222;2022-09-02T09:38:37;10.52;;;3.55;;
32323;SDS011;25666;44.350;9.222;2022-09-02T09:41:18;5.82;;;2.83;;
32323;SDS011;25666;44.350;9.222;2022-09-02T09:43:48;9.48;;;3.28;;
32323;SDS011;25666;44.350;9.222;2022-09-02T09:48:51;16.77;;;3.28;;
32323;SDS011;25666;44.350;9.222;2022-09-02T09:51:17;14.30;;;3.40;;
32323;SDS011;25666;44.350;9.222;2022-09-02T09:53:43;10.82;;;3.58;;
32323;SDS011;25666;44.350;9.222;2022-09-02T10:01:17;8.38;;;3.15;;
32323;SDS011;25666;44.350;9.222;2022-09-02T10:03:50;4.80;;;2.20;;
32323;SDS011;25666;44.350;9.222;2022-09-02T10:06:22;7.05;;;2.53;;
32323;SDS011;25666;44.350;9.222;2022-09-02T10:08:55;6.50;;;2.75;;
32323;SDS011;25666;44.350;9.222;2022-09-02T10:11:26;3.37;;;2.20;;
32323;SDS011;25666;44.350;9.222;2022-09-02T10:13:54;13.43;;;3.38;;
32323;SDS011;25666;44.350;9.222;2022-09-02T10:16:29;6.28;;;3.05;;
32323;SDS011;25666;44.350;9.222;2022-09-02T10:19:28;5.20;;;3.20;;
32323;SDS011;25666;44.350;9.222;2022-09-02T10:27:47;5.15;;;3.60;;
32323;SDS011;25666;44.350;9.222;2022-09-02T10:30:30;6.85;;;3.08;;
32323;SDS011;25666;44.350;9.222;2022-09-02T10:33:07;3.63;;;2.70;;
32323;SDS011;25666;44.350;9.222;2022-09-02T10:35:46;6.32;;;4.10;;
32323;SDS011;25666;44.350;9.222;2022-09-02T10:44:16;6.88;;;3.45;;
32323;SDS011;25666;44.350;9.222;2022-09-02T10:46:53;11.70;;;3.92;;
32323;SDS011;25666;44.350;9.222;2022-09-02T10:58:17;6.85;;;3.75;;
32323;SDS011;25666;44.350;9.222;2022-09-02T11:00:49;11.93;;;3.63;;
32323;SDS011;25666;44.350;9.222;2022-09-02T11:06:25;3.47;;;2.75;;
32323;SDS011;25666;44.350;9.222;2022-09-02T11:08:55;4.75;;;3.13;;
32323;SDS011;25666;44.350;9.222;2022-09-02T11:11:33;7.55;;;3.22;;
32323;SDS011;25666;44.350;9.222;2022-09-02T11:17:04;9.70;;;3.17;;
32323;SDS011;25666;44.350;9.222;2022-09-02T11:19:43;8.48;;;2.60;;
32323;SDS011;25666;44.350;9.222;2022-09-02T11:22:19;2.53;;;1.98;;
32323;SDS011;25666;44.350;9.222;2022-09-02T11:25:07;4.28;;;3.08;;
32323;SDS011;25666;44.350;9.222;2022-09-02T11:30:24;6.05;;;3.00;;
32323;SDS011;25666;44.350;9.222;2022-09-02T11:33:22;5.53;;;2.60;;
32323;SDS011;25666;44.350;9.222;2022-09-02T11:35:53;7.20;;;2.78;;
32323;SDS011;25666;44.350;9.222;2022-09-02T11:38:32;8.93;;;3.47;;
32323;SDS011;25666;44.350;9.222;2022-09-02T11:46:59;4.50;;;2.10;;
32323;SDS011;25666;44.350;9.222;2022-09-02T11:50:22;2.58;;;2.17;;
32323;SDS011;25666;44.350;9.222;2022-09-02T11:58:31;7.28;;;2.88;;
32323;SDS011;25666;44.350;9.222;2022-09-02T12:01:04;4.57;;;3.72;;
32323;SDS011;25666;44.350;9.222;2022-09-02T12:04:00;6.57;;;2.75;;
32323;SDS011;25666;44.350;9.222;2022-09-02T12:06:29;3.97;;;2.40;;
32323;SDS011;25666;44.350;9.222;2022-09-02T12:08:56;2.40;;;2.20;;
32323;SDS011;25666;44.350;9.222;2022-09-02T12:20:01;3.55;;;2.80;;
32323;SDS011;25666;44.350;9.222;2022-09-02T12:22:30;10.10;;;3.45;;
32323;SDS011;25666;44.350;9.222;2022-09-02T12:27:35;6.13;;;2.63;;
32323;SDS011;25666;44.350;9.222;2022-09-02T12:30:09;5.80;;;2.50;;
32323;SDS011;25666;44.350;9.222;2022-09-02T12:35:31;6.43;;;2.83;;
32323;SDS011;25666;44.350;9.222;2022-09-02T12:38:22;8.63;;;3.35;;
32323;SDS011;25666;44.350;9.222;2022-09-02T12:52:01;6.38;;;2.60;;
32323;SDS011;25666;44.350;9.222;2022-09-02T12:57:07;8.32;;;3.40;;
32323;SDS011;25666;44.350;9.222;2022-09-02T12:59:37;6.18;;;3.05;;
32323;SDS011;25666;44.350;9.222;2022-09-02T13:02:21;4.63;;;2.77;;
32323;SDS011;25666;44.350;9.222;2022-09-02T13:04:59;6.63;;;2.97;;
32323;SDS011;25666;44.350;9.222;2022-09-02T13:10:43;8.73;;;2.72;;
32323;SDS011;25666;44.350;9.222;2022-09-02T13:19:20;8.32;;;3.65;;
32323;SDS011;25666;44.350;9.222;2022-09-02T13:24:57;7.93;;;3.20;;
32323;SDS011;25666;44.350;9.222;2022-09-02T13:33:28;5.50;;;4.03;;
32323;SDS011;25666;44.350;9.222;2022-09-02T13:35:54;4.07;;;3.20;;
32323;SDS011;25666;44.350;9.222;2022-09-02T13:38:23;21.88;;;4.75;;
32323;SDS011;25666;44.350;9.222;2022-09-02T13:40:50;8.18;;;3.72;;
32323;SDS011;25666;44.350;9.222;2022-09-02T13:43:18;4.57;;;3.30;;
32323;SDS011;25666;44.350;9.222;2022-09-02T13:45:45;6.07;;;3.70;;
32323;SDS011;25666;44.350;9.222;2022-09-02T13:48:20;7.00;;;3.30;;
32323;SDS011;25666;44.350;9.222;2022-09-02T13:50:51;10.90;;;3.17;;
32323;SDS011;25666;44.350;9.222;2022-09-02T13:55:58;10.30;;;3.53;;
32323;SDS011;25666;44.350;9.222;2022-09-02T14:00:54;10.38;;;2.80;;
32323;SDS011;25666;44.350;9.222;2022-09-02T14:03:22;6.63;;;3.10;;
32323;SDS011;25666;44.350;9.222;2022-09-02T14:05:52;4.07;;;2.55;;
32323;SDS011;25666;44.350;9.222;2022-09-02T14:08:22;4.57;;;2.70;;
32323;SDS011;25666;44.350;9.222;2022-09-02T14:10:51;6.40;;;3.08;;
32323;SDS011;25666;44.350;9.222;2022-09-02T14:13:18;7.88;;;2.72;;
32323;SDS011;25666;44.350;9.222;2022-09-02T14:15:44;6.28;;;2.33;;
32323;SDS011;25666;44.350;9.222;2022-09-02T14:21:01;9.10;;;2.67;;
32323;SDS011;25666;44.350;9.222;2022-09-02T14:23:45;6.20;;;3.25;;
32323;SDS011;25666;44.350;9.222;2022-09-02T14:26:18;6.85;;;3.22;;
32323;SDS011;25666;44.350;9.222;2022-09-02T14:28:50;4.57;;;2.70;;
32323;SDS011;25666;44.350;9.222;2022-09-02T14:31:23;5.68;;;3.53;;
32323;SDS011;25666;44.350;9.222;2022-09-02T14:33:53;5.53;;;2.70;;
32323;SDS011;25666;44.350;9.222;2022-09-02T14:39:06;4.72;;;3.45;;
32323;SDS011;25666;44.350;9.222;2022-09-02T14:41:49;11.48;;;3.28;;
32323;SDS011;25666;44.350;9.222;2022-09-02T14:44:29;9.55;;;3.00;;
32323;SDS011;25666;44.350;9.222;2022-09-02T14:47:05;6.03;;;2.67;;
32323;SDS011;25666;44.350;9.222;2022-09-02T14:54:51;5.85;;;3.30;;
32323;SDS011;25666;44.350;9.222;2022-09-02T14:59:56;5.28;;;2.65;;
32323;SDS011;25666;44.350;9.222;2022-09-02T15:04:52;9.55;;;3.50;;
32323;SDS011;25666;44.350;9.222;2022-09-02T15:07:19;6.70;;;3.35;;
32323;SDS011;25666;44.350;9.222;2022-09-02T15:09:45;4.55;;;3.85;;
32323;SDS011;25666;44.350;9.222;2022-09-02T15:12:22;6.50;;;2.70;;
32323;SDS011;25666;44.350;9.222;2022-09-02T15:14:53;7.35;;;3.85;;
32323;SDS011;25666;44.350;9.222;2022-09-02T15:17:20;13.15;;;3.80;;
32323;SDS011;25666;44.350;9.222;2022-09-02T15:19:46;7.72;;;2.75;;
32323;SDS011;25666;44.350;9.222;2022-09-02T15:22:11;8.90;;;3.33;;
32323;SDS011;25666;44.350;9.222;2022-09-02T15:24:38;7.97;;;3.60;;
32323;SDS011;25666;44.350;9.222;2022-09-02T15:27:04;6.35;;;3.80;;
32323;SDS011;25666;44.350;9.222;2022-09-02T15:29:29;4.32;;;3.10;;
32323;SDS011;25666;44.350;9.222;2022-09-02T15:31:55;4.80;;;3.28;;
32323;SDS011;25666;44.350;9.222;2022-09-02T15:34:20;9.30;;;2.80;;
32323;SDS011;25666;44.350;9.222;2022-09-02T15:36:46;9.88;;;3.33;;
32323;SDS011;25666;44.350;9.222;2022-09-02T15:39:12;14.10;;;3.63;;
32323;SDS011;25666;44.350;9.222;2022-09-02T15:41:38;9.27;;;4.50;;
32323;SDS011;25666;44.350;9.222;2022-09-02T15:44:05;8.60;;;2.45;;
32323;SDS011;25666;44.350;9.222;2022-09-02T15:46:34;8.02;;;3.15;;
32323;SDS011;25666;44.350;9.222;2022-09-02T15:49:07;5.38;;;2.58;;
32323;SDS011;25666;44.350;9.222;2022-09-02T15:51:35;6.20;;;2.72;;
32323;SDS011;25666;44.350;9.222;2022-09-02T15:54:05;4.60;;;3.00;;
32323;SDS011;25666;44.350;9.222;2022-09-02T15:56:36;15.63;;;3.58;;
32323;SDS011;25666;44.350;9.222;2022-09-02T15:59:11;8.55;;;3.13;;
32323;SDS011;25666;44.350;9.222;2022-09-02T16:01:49;17.48;;;2.95;;
32323;SDS011;25666;44.350;9.222;2022-09-02T16:04:20;17.50;;;3.83;;
32323;SDS011;25666;44.350;9.222;2022-09-02T16:06:47;15.07;;;3.00;;
32323;SDS011;25666;44.350;9.222;2022-09-02T16:09:14;5.07;;;3.72;;
32323;SDS011;25666;44.350;9.222;2022-09-02T16:11:45;12.77;;;3.20;;
32323;SDS011;25666;44.350;9.222;2022-09-02T16:14:12;7.00;;;3.30;;
32323;SDS011;25666;44.350;9.222;2022-09-02T16:16:39;7.20;;;2.97;;
32323;SDS011;25666;44.350;9.222;2022-09-02T16:19:05;10.85;;;2.88;;
32323;SDS011;25666;44.350;9.222;2022-09-02T16:21:31;4.72;;;2.80;;
32323;SDS011;25666;44.350;9.222;2022-09-02T16:23:57;9.75;;;3.50;;
32323;SDS011;25666;44.350;9.222;2022-09-02T16:28:54;10.60;;;3.67;;
32323;SDS011;25666;44.350;9.222;2022-09-02T16:31:21;5.20;;;3.08;;
32323;SDS011;25666;44.350;9.222;2022-09-02T16:36:21;4.45;;;2.95;;
32323;SDS011;25666;44.350;9.222;2022-09-02T16:38:48;5.65;;;3.25;;
32323;SDS011;25666;44.350;9.222;2022-09-02T16:41:20;4.30;;;2.95;;
32323;SDS011;25666;44.350;9.222;2022-09-02T16:43:51;6.30;;;2.72;;
32323;SDS011;25666;44.350;9.222;2022-09-02T16:46:17;7.35;;;3.40;;
32323;SDS011;25666;44.350;9.222;2022-09-02T16:48:43;5.25;;;3.65;;
32323;SDS011;25666;44.350;9.222;2022-09-02T16:51:09;6.03;;;3.13;;
32323;SDS011;25666;44.350;9.222;2022-09-02T16:53:34;4.82;;;3.35;;
32323;SDS011;25666;44.350;9.222;2022-09-02T16:56:01;7.00;;;3.33;;
32323;SDS011;25666;44.350;9.222;2022-09-02T16:58:27;5.75;;;3.20;;
32323;SDS011;25666;44.350;9.222;2022-09-02T17:00:54;6.22;;;3.55;;
32323;SDS011;25666;44.350;9.222;2022-09-02T17:03:20;8.35;;;3.40;;
32323;SDS011;25666;44.350;9.222;2022-09-02T17:05:46;7.75;;;3.63;;
32323;SDS011;25666;44.350;9.222;2022-09-02T17:08:13;6.95;;;3.30;;
32323;SDS011;25666;44.350;9.222;2022-09-02T17:10:39;5.47;;;3.90;;
32323;SDS011;25666;44.350;9.222;2022-09-02T17:13:05;12.40;;;3.45;;
32323;SDS011;25666;44.350;9.222;2022-09-02T17:15:31;7.70;;;3.28;;
32323;SDS011;25666;44.350;9.222;2022-09-02T17:17:57;5.20;;;3.10;;
32323;SDS011;25666;44.350;9.222;2022-09-02T17:20:24;10.48;;;3.55;;
32323;SDS011;25666;44.350;9.222;2022-09-02T17:22:49;7.30;;;3.22;;